createdAt,value
2023-01-01T00:03:40.655Z,95.45
2023-01-01T00:08:44.060Z,108.80
2023-01-01T00:13:47.431Z,122.05
2023-01-01T00:18:52.048Z,96.55
2023-01-01T00:23:55.452Z,91.35
2023-01-01T00:28:58.773Z,95.32
2023-01-01T00:34:03.545Z,100.80
2023-01-01T00:39:06.825Z,98.28
2023-01-01T00:44:10.093Z,128.93
2023-01-01T00:49:14.861Z,88.75
2023-01-01T00:54:18.121Z,69.43
2023-01-01T00:59:26.825Z,82.28
2023-01-01T01:04:33.286Z,57.40
2023-01-01T01:09:36.573Z,54.47
2023-01-01T01:14:39.854Z,59.33
2023-01-01T01:19:44.471Z,65.65
2023-01-01T01:24:47.843Z,72.18
2023-01-01T01:29:51.132Z,61.90
2023-01-01T01:34:55.771Z,73.78
2023-01-01T01:39:59.144Z,73.68
2023-01-01T01:45:03.628Z,67.30
2023-01-01T01:50:12.734Z,56.28
2023-01-01T01:55:16.116Z,56.58
2023-01-01T02:00:19.838Z,51.65
2023-01-01T02:05:26.115Z,48.88
2023-01-01T02:10:29.814Z,50.47
2023-01-01T02:15:45.356Z,55.90
2023-01-01T02:20:55.269Z,68.60
2023-01-01T02:26:22.291Z,73.65
2023-01-01T02:31:30.385Z,56.38
2023-01-01T02:36:36.001Z,53.17
2023-01-01T02:41:42.867Z,49.67
2023-01-01T02:46:47.520Z,56.00
2023-01-01T02:52:05.668Z,60.22
2023-01-01T02:57:17.824Z,60.93
2023-01-01T03:02:28.652Z,64.43
2023-01-01T03:07:40.225Z,75.43
2023-01-01T03:12:50.830Z,69.90
2023-01-01T03:18:03.532Z,63.78
2023-01-01T03:23:10.177Z,62.13
2023-01-01T03:28:18.269Z,66.13
2023-01-01T03:33:30.381Z,63.27
2023-01-01T03:38:38.775Z,63.95
2023-01-01T03:43:49.432Z,52.33
2023-01-01T03:49:03.180Z,53.03
2023-01-01T03:54:16.739Z,51.23
2023-01-01T03:59:25.495Z,58.53
2023-01-01T04:04:30.276Z,51.97
2023-01-01T04:09:35.265Z,52.08
2023-01-01T04:14:40.519Z,50.90
2023-01-01T04:19:48.845Z,54.67
2023-01-01T04:24:56.462Z,46.87
2023-01-01T04:29:59.800Z,50.43
2023-01-01T04:35:04.836Z,48.23
2023-01-01T04:40:09.822Z,42.63
2023-01-01T04:45:15.381Z,102.53
2023-01-01T04:50:20.453Z,106.22
2023-01-01T04:55:23.742Z,116.37
2023-01-01T05:00:27.044Z,105.80
2023-01-01T05:05:31.727Z,103.53
2023-01-01T05:10:34.989Z,104.13
2023-01-01T05:15:38.835Z,92.43
2023-01-01T05:20:43.468Z,96.70
2023-01-01T05:25:46.717Z,93.15
2023-01-01T05:30:50.066Z,85.95
2023-01-01T05:35:56.760Z,81.13
2023-01-01T05:41:00.132Z,91.72
2023-01-01T05:46:05.116Z,85.10
2023-01-01T05:51:12.199Z,90.75
2023-01-01T05:56:16.725Z,86.70
2023-01-01T06:01:22.652Z,91.30
2023-01-01T06:06:28.847Z,90.75
2023-01-01T06:11:32.677Z,113.72
2023-01-01T06:16:36.407Z,114.68
2023-01-01T06:21:41.167Z,135.20
2023-01-01T06:26:44.413Z,126.68
2023-01-01T06:31:47.670Z,123.65
2023-01-01T06:36:52.323Z,135.13
2023-01-01T06:41:55.559Z,143.93
2023-01-01T06:46:58.814Z,131.05
2023-01-01T06:52:03.426Z,115.32
2023-01-01T06:57:07.445Z,99.88
2023-01-01T07:02:12.473Z,100.83
2023-01-01T07:07:17.206Z,97.03
2023-01-01T07:12:20.429Z,91.05
2023-01-01T07:17:23.657Z,106.15
2023-01-01T07:22:28.269Z,87.47
2023-01-01T07:27:31.534Z,85.57
2023-01-01T07:32:34.773Z,86.63
2023-01-01T07:37:39.649Z,92.82
2023-01-01T07:42:44.573Z,116.88
2023-01-01T07:47:52.465Z,120.47
2023-01-01T07:52:57.233Z,57.80
2023-01-01T07:58:00.530Z,37.20
2023-01-01T08:03:04.134Z,29.87
2023-01-01T08:08:09.837Z,27.90
2023-01-01T08:13:13.302Z,29.58
2023-01-01T08:18:16.607Z,24.05
2023-01-01T08:23:21.469Z,24.73
2023-01-01T08:28:24.805Z,26.70
2023-01-01T08:33:28.369Z,29.20
2023-01-01T08:38:33.083Z,31.90
2023-01-01T08:43:36.560Z,34.80
2023-01-01T08:48:39.788Z,33.63
2023-01-01T08:53:50.625Z,30.77
2023-01-01T08:58:58.763Z,34.45
2023-01-01T09:04:07.989Z,37.23
2023-01-01T09:09:15.108Z,40.55
2023-01-01T09:14:18.355Z,38.83
2023-01-01T09:19:21.604Z,32.58
2023-01-01T09:24:26.241Z,29.63
2023-01-01T09:29:29.514Z,24.80
2023-01-01T09:34:32.751Z,24.33
2023-01-01T09:39:37.400Z,22.67
2023-01-01T09:44:56.543Z,23.63
2023-01-01T09:50:04.331Z,22.80
2023-01-01T09:55:17.036Z,29.25
2023-01-01T10:00:21.058Z,24.67
2023-01-01T10:05:34.895Z,24.02
2023-01-01T10:10:41.870Z,23.10
2023-01-01T10:15:54.239Z,22.37
2023-01-01T10:21:03.668Z,22.00
2023-01-01T10:26:14.032Z,21.65
2023-01-01T10:31:19.228Z,19.35
2023-01-01T10:36:22.661Z,23.13
2023-01-01T10:41:27.328Z,24.15
2023-01-01T10:46:32.322Z,20.00
2023-01-01T10:51:42.928Z,23.08
2023-01-01T10:56:47.693Z,22.43
2023-01-01T11:02:16.024Z,22.63
2023-01-01T11:07:26.178Z,22.83
2023-01-01T11:13:03.433Z,21.30
2023-01-01T11:18:05.557Z,20.67
2023-01-01T11:23:21.103Z,21.90
2023-01-01T11:28:26.152Z,20.80
2023-01-01T11:33:32.869Z,23.73
2023-01-01T11:38:36.168Z,25.90
2023-01-01T11:43:46.264Z,25.90
2023-01-01T11:48:49.561Z,26.37
2023-01-01T11:53:52.884Z,24.67
2023-01-01T11:59:00.951Z,28.05
2023-01-01T12:04:10.434Z,24.63
2023-01-01T12:09:19.095Z,24.38
2023-01-01T12:14:32.911Z,23.35
2023-01-01T12:19:42.497Z,25.55
2023-01-01T12:24:47.253Z,23.75
2023-01-01T12:30:19.467Z,25.27
2023-01-01T12:35:34.073Z,24.58
2023-01-01T12:40:45.529Z,25.45
2023-01-01T12:46:15.726Z,24.83
2023-01-01T12:51:37.290Z,22.88
2023-01-01T12:56:45.538Z,23.42
2023-01-01T13:01:52.678Z,22.45
2023-01-01T13:07:03.819Z,23.20
2023-01-01T13:12:10.816Z,21.83
2023-01-01T13:17:23.392Z,21.58
2023-01-01T13:22:43.189Z,22.90
2023-01-01T13:28:06.767Z,23.35
2023-01-01T13:33:26.055Z,23.48
2023-01-01T13:38:48.398Z,23.48
2023-01-01T13:43:51.895Z,21.90
2023-01-01T13:49:20.184Z,22.38
2023-01-01T13:59:54.548Z,27.75
2023-01-01T14:05:02.272Z,30.65
2023-01-01T14:10:27.938Z,26.10
2023-01-01T14:15:33.888Z,29.52
2023-01-01T14:20:43.030Z,23.58
2023-01-01T14:25:49.285Z,22.10
2023-01-01T14:30:53.631Z,23.58
2023-01-01T14:35:59.814Z,25.30
2023-01-01T14:41:10.011Z,26.43
2023-01-01T14:46:16.878Z,24.07
2023-01-01T14:51:24.705Z,26.98
2023-01-01T14:56:30.850Z,35.60
2023-01-01T15:01:34.245Z,25.80
2023-01-01T15:06:42.379Z,29.92
2023-01-01T15:11:46.518Z,45.95
2023-01-01T15:17:01.670Z,33.30
2023-01-01T15:22:12.531Z,30.70
2023-01-01T15:27:24.386Z,35.20
2023-01-01T15:32:30.510Z,42.47
2023-01-01T15:37:39.106Z,48.37
2023-01-01T15:42:45.964Z,39.13
2023-01-01T15:47:49.572Z,29.98
2023-01-01T15:52:56.911Z,37.03
2023-01-01T15:58:00.655Z,34.70
2023-01-01T16:03:18.364Z,32.13
2023-01-01T16:08:23.238Z,35.07
2023-01-01T16:13:26.573Z,36.58
2023-01-01T16:18:32.105Z,55.10
2023-01-01T16:23:36.813Z,48.63
2023-01-01T16:28:40.156Z,41.57
2023-01-01T16:33:43.650Z,35.83
2023-01-01T16:38:48.481Z,35.55
2023-01-01T16:43:51.865Z,31.98
2023-01-01T16:48:55.443Z,35.10
2023-01-01T16:54:00.963Z,34.13
2023-01-01T16:59:04.436Z,34.95
2023-01-01T17:04:07.896Z,33.38
2023-01-01T17:09:13.650Z,33.22
2023-01-01T17:14:16.927Z,30.80
2023-01-01T17:19:20.180Z,31.00
2023-01-01T17:24:24.962Z,28.98
2023-01-01T17:29:28.327Z,29.45
2023-01-01T17:34:31.604Z,28.53
2023-01-01T17:39:36.182Z,26.47
2023-01-01T17:44:39.403Z,28.67
2023-01-01T17:49:43.512Z,31.52
2023-01-01T17:54:48.167Z,50.50
2023-01-01T17:59:51.499Z,68.32
2023-01-01T18:04:54.791Z,64.72
2023-01-01T18:09:59.358Z,56.97
2023-01-01T18:15:02.568Z,56.38
2023-01-01T18:20:07.007Z,35.80
2023-01-01T18:25:12.054Z,36.20
2023-01-01T18:30:15.863Z,42.10
2023-01-01T18:35:19.121Z,39.92
2023-01-01T18:40:24.058Z,40.40
2023-01-01T18:45:27.868Z,33.07
2023-01-01T18:50:35.818Z,34.60
2023-01-01T18:55:40.671Z,33.47
2023-01-01T19:00:44.256Z,33.37
2023-01-01T19:05:48.676Z,40.80
2023-01-01T19:10:54.957Z,36.95
2023-01-01T19:16:01.315Z,34.33
2023-01-01T19:21:18.098Z,35.38
2023-01-01T19:26:25.384Z,29.52
2023-01-01T19:31:28.842Z,31.92
2023-01-01T19:36:32.319Z,35.90
2023-01-01T19:41:38.298Z,38.47
2023-01-01T19:46:41.845Z,34.95
2023-01-01T19:51:45.219Z,34.65
2023-01-01T19:56:50.913Z,32.80
2023-01-01T20:02:25.774Z,52.92
2023-01-01T20:07:17.701Z,38.53
2023-01-01T20:12:22.311Z,37.13
2023-01-01T20:17:25.619Z,35.58
2023-01-01T20:22:28.836Z,35.90
2023-01-01T20:27:34.134Z,32.53
2023-01-01T20:32:38.133Z,35.10
2023-01-01T20:37:41.963Z,34.47
2023-01-01T20:42:46.595Z,30.65
2023-01-01T20:47:49.879Z,28.50
2023-01-01T20:52:53.107Z,31.45
2023-01-01T20:57:57.702Z,32.10
2023-01-01T21:03:02.370Z,30.20
2023-01-01T21:08:06.011Z,28.63
2023-01-01T21:13:10.659Z,26.17
2023-01-01T21:18:14.659Z,29.98
2023-01-01T21:23:21.960Z,29.27
2023-01-01T21:28:34.465Z,29.65
2023-01-01T21:33:37.937Z,27.17
2023-01-01T21:38:41.296Z,27.57
2023-01-01T21:43:50.375Z,27.08
2023-01-01T21:48:56.686Z,28.30
2023-01-01T21:54:17.574Z,27.00
2023-01-01T21:59:32.859Z,28.83
2023-01-01T22:04:38.199Z,28.85
2023-01-01T22:09:46.184Z,28.47
2023-01-01T22:14:52.402Z,29.67
2023-01-01T22:19:59.574Z,31.70
2023-01-01T22:25:19.062Z,32.33
2023-01-01T22:30:41.035Z,31.35
2023-01-01T22:35:44.448Z,29.08
2023-01-01T22:40:50.295Z,30.95
2023-01-01T22:45:55.685Z,26.92
2023-01-01T22:51:03.078Z,27.48
2023-01-01T22:56:06.909Z,27.48
2023-01-01T23:01:11.664Z,26.75
2023-01-01T23:06:14.920Z,24.02
2023-01-01T23:11:18.327Z,26.08
2023-01-01T23:16:23.116Z,27.83
2023-01-01T23:21:27.558Z,26.45
2023-01-01T23:26:31.213Z,38.22
2023-01-01T23:31:37.085Z,39.42
2023-01-01T23:36:41.691Z,38.57
2023-01-01T23:41:44.941Z,33.70
2023-01-01T23:46:49.778Z,35.53
2023-01-01T23:51:53.943Z,34.73
2023-01-01T23:56:57.171Z,31.97
